Ballengee, West Virginia
Current Conditions -  °F | °C
As of 3:51 PM on Thursday 18 Dec 2014 (Local Time) from KBKW Reporting Station
Overcast Overcast  
Wind Chill: 27°   Ceiling: 7500
Heat Index: 34°   Visibility: 10mi
Dew Point: 21°   Wind: 8mph
Humidity: 59%   Direction: 330°NNW
Pressure: 30.08"   Gusts: NA
Location:  37.62°N, 80.74°W
Report Text: KBKW 182051Z AUTO 33007KT 10SM OVC075 01/M06 A3008 RMK AO2 SLP215 T00111061 55004
Loading
Personal Weather Stations






























Interactive Weather Map New forecast layout! Learn more

10-Day Weather Forecast

Advertisements
Track Severe Weather on mobile